Aérodrome :
LOGIN :

S'inscrire | Disclaimer

   EN    FR    IT 

 










Légende :    VFR   VFR Marginal   IFR   IFR Intensif   IFR Très Intensif
Visi : 
Plafond : 
>= 8 km
>= 3000ft
5 à 8 km
1000 à 3000 ft
1500m à 5 km
500 à 1000 ft
800 à 1500m
200 à 500 ft
< 800m
< 200 ft
Symboles :   Orages  Brouillard  Fortes neiges  Fortes précipitations  Vent > 20 kt
SIGMETs :   Divers  Orages  Givrage  Turbulence  Onde Orograph.  Cendres Volcan.






- Altitude de l'aérodrome : 400 ft
- Code IATA : BNX


LQBK - Banja Luka

DERNIER METAR :
  • 101000Z 31008KT 8000 -RA SCT017 OVC035 07/06 Q1017 NOSIG

METARs EXPIRÉS :
  • 100930Z 31008KT 6000 -RA SCT017 OVC035 07/06 Q1017 NOSIG
  • 100900Z 32008KT 6000 -RA SCT017 OVC035 06/06 Q1017 NOSIG
  • 100830Z 32008KT 6000 RA SCT020 OVC035 06/06 Q1016 NOSIG
  • 100800Z 31006KT 9999 -RA SCT020 OVC035 07/06 Q1016 NOSIG
  • 100730Z 30008KT 7000 RA SCT017 OVC035 06/06 Q1015 NOSIG

TAF TAF LQBK
Valide du 10 à 06h jusqu'au 11 à 06h UTC


100500Z 1006/1106 30007KT 9999 SCT015 BKN035 TX06/1006Z TN00/1106Z
TEMPO 1006/1012 5000 RA BKN007 OVC027
TEMPO 1006/1019 36013KT
PROB30
TEMPO 1103/1106 1200 BCFG



MET'MAP, la Météo Aéronautique d'un coup d'oeil ! - Copyright ORBIFLY Décembre 2007 - Disclaimer

ORBIFLY MET'MAP TEAM :

Programmation & Développement : Alexandra Zaïnal
Sur une idée originale de : Baudouin d'Aumeries
Assistance à la programmation : Marc-Olivier Méhu
Soutien technique & logistique : Manuel Goepfert

Contact : metmap@orbifly.com




SOURCES & CREDITS :

   NOAA